createdAt,value
2019-04-10T00:02:46.003Z,10.00
2019-04-10T00:07:47.968Z,10.00
2019-04-10T00:12:49.771Z,10.00
2019-04-10T00:17:51.477Z,9.90
2019-04-10T00:22:52.818Z,9.90
2019-04-10T00:27:54.849Z,9.90
2019-04-10T00:32:56.463Z,9.90
2019-04-10T00:37:57.656Z,9.80
2019-04-10T00:42:58.762Z,9.80
2019-04-10T00:47:59.820Z,9.80
2019-04-10T00:53:00.980Z,9.70
2019-04-10T00:58:02.320Z,9.70
2019-04-10T01:03:03.621Z,9.70
2019-04-10T01:08:04.712Z,9.70
2019-04-10T01:13:05.806Z,9.70
2019-04-10T01:18:06.893Z,9.60
2019-04-10T01:23:07.987Z,9.50
2019-04-10T01:28:09.067Z,9.50
2019-04-10T01:33:10.352Z,9.40
2019-04-10T01:38:11.563Z,9.40
2019-04-10T01:43:15.866Z,9.40
2019-04-10T01:48:15.665Z,9.30
2019-04-10T01:53:17.619Z,9.20
2019-04-10T01:58:21.086Z,9.20
2019-04-10T02:03:22.337Z,11.50
2019-04-10T02:08:23.642Z,9.00
2019-04-10T02:13:25.466Z,8.90
2019-04-10T02:18:27.688Z,8.80
2019-04-10T02:23:28.924Z,9.60
2019-04-10T02:28:30.968Z,8.70
2019-04-10T02:33:33.615Z,8.70
2019-04-10T02:38:50.797Z,8.70
2019-04-10T02:43:38.127Z,8.70
2019-04-10T02:48:41.523Z,8.60
2019-04-10T02:53:43.791Z,8.60
2019-04-10T02:58:46.880Z,8.50
2019-04-10T03:03:50.124Z,8.40
2019-04-10T03:09:07.979Z,8.40
2019-04-10T03:13:55.605Z,8.40
2019-04-10T03:18:56.930Z,8.40
2019-04-10T03:23:58.087Z,8.40
2019-04-10T03:28:59.715Z,8.30
2019-04-10T03:34:21.125Z,8.30
2019-04-10T03:39:21.633Z,8.30
2019-04-10T03:44:22.924Z,8.30
2019-04-10T03:49:24.160Z,8.20
2019-04-10T03:54:25.255Z,8.20
2019-04-10T03:59:26.419Z,8.20
2019-04-10T04:04:27.535Z,8.20
2019-04-10T04:09:29.384Z,8.10
2019-04-10T04:14:30.619Z,8.20
2019-04-10T04:19:32.433Z,8.10
2019-04-10T04:24:33.623Z,8.10
2019-04-10T04:29:34.724Z,8.10
2019-04-10T04:34:36.746Z,8.00
2019-04-10T04:39:37.934Z,8.00
2019-04-10T04:44:39.799Z,8.00
2019-04-10T04:49:41.928Z,7.90
2019-04-10T04:54:43.541Z,7.90
2019-04-10T04:59:44.964Z,7.90
2019-04-10T05:04:46.156Z,7.80
2019-04-10T05:09:48.151Z,7.80
2019-04-10T05:14:49.469Z,7.90
2019-04-10T05:19:50.649Z,8.00
2019-04-10T05:24:52.338Z,7.90
2019-04-10T05:29:53.660Z,8.00
2019-04-10T05:34:54.867Z,7.90
2019-04-10T05:39:55.989Z,8.00
2019-04-10T05:44:57.147Z,8.10
2019-04-10T05:49:58.235Z,8.10
2019-04-10T05:54:59.919Z,8.10
2019-04-10T06:00:04.729Z,8.10
2019-04-10T06:05:06.338Z,8.10
2019-04-10T06:10:10.040Z,8.20
2019-04-10T06:15:11.336Z,8.10
2019-04-10T06:20:14.201Z,8.80
2019-04-10T06:25:18.827Z,8.20
2019-04-10T06:30:19.769Z,8.20
2019-04-10T06:35:21.979Z,8.20
2019-04-10T06:40:25.901Z,8.30
2019-04-10T06:45:26.311Z,8.30
2019-04-10T06:50:28.597Z,8.40
2019-04-10T06:55:30.407Z,8.40
2019-04-10T07:00:32.482Z,8.40
2019-04-10T07:05:40.822Z,8.50
2019-04-10T07:10:49.122Z,8.50
2019-04-10T07:15:42.906Z,8.60
2019-04-10T07:20:44.147Z,8.90
2019-04-10T07:25:46.903Z,9.20
2019-04-10T07:30:48.448Z,9.30
2019-04-10T07:35:49.952Z,9.60
2019-04-10T07:40:51.331Z,10.20
2019-04-10T07:45:56.597Z,9.60
2019-04-10T07:50:55.852Z,9.70
2019-04-10T07:56:04.450Z,9.70
2019-04-10T08:01:00.972Z,9.80
2019-04-10T08:06:02.477Z,10.10
2019-04-10T08:11:04.942Z,10.20
2019-04-10T08:16:06.652Z,10.30
2019-04-10T08:21:07.732Z,10.30
2019-04-10T08:26:08.946Z,10.70
2019-04-10T08:31:10.130Z,11.00
2019-04-10T08:36:11.244Z,11.10
2019-04-10T08:41:12.919Z,11.60
2019-04-10T08:46:15.041Z,11.90
2019-04-10T08:51:17.062Z,12.00
2019-04-10T08:56:18.875Z,12.10
2019-04-10T09:01:20.863Z,12.10
2019-04-10T09:06:23.097Z,11.90
2019-04-10T09:11:27.924Z,12.10
2019-04-10T09:16:28.730Z,12.10
2019-04-10T09:21:30.012Z,12.20
2019-04-10T09:26:31.123Z,12.40
2019-04-10T09:31:32.236Z,12.40
2019-04-10T09:36:33.377Z,12.30
2019-04-10T09:41:34.567Z,12.30
2019-04-10T09:46:35.654Z,12.30
2019-04-10T09:51:36.743Z,12.20
2019-04-10T09:56:38.553Z,11.90
2019-04-10T10:01:39.740Z,11.50
2019-04-10T10:06:41.095Z,11.40
2019-04-10T10:11:42.753Z,11.70
2019-04-10T10:16:44.232Z,11.60
2019-04-10T10:21:45.735Z,11.70
2019-04-10T10:26:46.829Z,11.70
2019-04-10T10:31:49.807Z,11.80
2019-04-10T10:36:53.164Z,11.60
2019-04-10T10:41:54.459Z,11.70
2019-04-10T10:46:55.868Z,11.70
2019-04-10T10:51:57.281Z,11.90
2019-04-10T10:56:58.574Z,12.40
2019-04-10T11:02:00.264Z,12.80
2019-04-10T11:07:02.653Z,13.10
2019-04-10T11:12:04.712Z,13.90
2019-04-10T11:17:06.465Z,14.30
2019-04-10T11:22:09.396Z,14.40
2019-04-10T11:27:11.879Z,14.00
2019-04-10T11:32:14.359Z,13.70
2019-04-10T11:37:24.224Z,13.80
2019-04-10T11:42:21.025Z,13.60
2019-04-10T11:47:23.601Z,13.40
2019-04-10T11:52:33.780Z,13.10
2019-04-10T11:57:30.790Z,13.00
2019-04-10T12:02:34.351Z,12.70
2019-04-10T12:08:06.078Z,12.70
2019-04-10T12:12:37.589Z,12.40
2019-04-10T12:17:38.900Z,12.50
2019-04-10T12:22:40.721Z,12.50
2019-04-10T12:27:42.718Z,12.60
2019-04-10T12:32:45.967Z,12.40
2019-04-10T12:37:57.335Z,12.50
2019-04-10T12:42:50.405Z,12.60
2019-04-10T12:47:52.426Z,12.90
2019-04-10T12:52:54.639Z,12.90
2019-04-10T12:58:06.066Z,12.90
2019-04-10T13:02:58.980Z,12.80
2019-04-10T13:08:12.901Z,12.80
2019-04-10T13:13:04.034Z,12.80
2019-04-10T13:18:05.937Z,12.60
2019-04-10T13:23:07.144Z,12.60
2019-04-10T13:28:08.739Z,12.40
2019-04-10T13:33:12.140Z,12.20
2019-04-10T13:38:23.261Z,12.10
2019-04-10T13:43:17.943Z,12.10
2019-04-10T13:48:19.311Z,12.10
2019-04-10T13:53:20.415Z,12.00
2019-04-10T13:58:21.615Z,11.80
2019-04-10T14:03:22.725Z,11.80
2019-04-10T14:08:40.280Z,11.70
2019-04-10T14:13:27.584Z,11.70
2019-04-10T14:18:29.448Z,11.60
2019-04-10T14:23:31.346Z,11.60
2019-04-10T14:28:34.027Z,11.60
2019-04-10T14:33:35.784Z,11.50
2019-04-10T14:38:37.049Z,11.40
2019-04-10T14:43:38.397Z,11.40
2019-04-10T14:48:40.389Z,11.60
2019-04-10T14:53:41.764Z,11.60
2019-04-10T14:58:43.045Z,11.70
2019-04-10T15:03:44.537Z,11.70
2019-04-10T15:08:46.042Z,11.70
2019-04-10T15:13:47.428Z,11.80
2019-04-10T15:18:50.164Z,11.80
2019-04-10T15:23:51.263Z,11.70
2019-04-10T15:28:52.492Z,11.50
2019-04-10T15:33:53.832Z,11.50
2019-04-10T15:38:55.004Z,11.60
2019-04-10T15:43:57.267Z,11.70
2019-04-10T15:48:58.626Z,11.90
2019-04-10T15:53:59.828Z,12.10
2019-04-10T15:59:00.924Z,12.00
2019-04-10T16:04:03.132Z,12.00
2019-04-10T16:09:07.176Z,12.00
2019-04-10T16:14:17.936Z,12.40
2019-04-10T16:19:18.342Z,12.60
2019-04-10T16:24:21.349Z,13.10
2019-04-10T16:29:22.466Z,13.10
2019-04-10T16:34:24.791Z,12.90
2019-04-10T16:39:27.615Z,13.10
2019-04-10T16:44:29.348Z,12.90
2019-04-10T16:49:30.917Z,12.60
2019-04-10T16:54:33.299Z,12.30
2019-04-10T16:59:34.461Z,12.00
2019-04-10T17:04:36.564Z,11.90
2019-04-10T17:09:37.682Z,11.80
2019-04-10T17:14:39.884Z,11.60
2019-04-10T17:19:49.373Z,11.50
2019-04-10T17:24:45.286Z,11.40
2019-04-10T17:29:47.293Z,11.20
2019-04-10T17:34:49.295Z,11.10
2019-04-10T17:39:51.478Z,10.90
2019-04-10T17:44:53.948Z,10.80
2019-04-10T17:49:56.056Z,10.60
2019-04-10T17:54:57.363Z,10.50
2019-04-10T17:59:58.608Z,10.40
2019-04-10T18:04:59.815Z,10.30
2019-04-10T18:10:02.373Z,10.20
2019-04-10T18:15:06.083Z,10.00
2019-04-10T18:20:08.412Z,9.90
2019-04-10T18:25:09.777Z,9.80
2019-04-10T18:30:12.029Z,9.70
2019-04-10T18:35:14.295Z,9.70
2019-04-10T18:40:15.943Z,9.60
2019-04-10T18:45:17.576Z,9.50
2019-04-10T18:50:18.965Z,9.50
2019-04-10T18:55:20.427Z,9.40
2019-04-10T19:00:40.714Z,9.40
2019-04-10T19:05:50.102Z,9.40
2019-04-10T19:10:51.712Z,9.40
2019-04-10T19:15:55.402Z,9.30
2019-04-10T19:20:59.065Z,9.20
2019-04-10T19:26:00.391Z,9.10
2019-04-10T19:31:12.962Z,9.00
2019-04-10T19:36:07.803Z,8.90
2019-04-10T19:41:21.223Z,8.80
2019-04-10T19:46:12.537Z,8.80
2019-04-10T19:51:14.923Z,8.70
2019-04-10T19:56:16.157Z,8.60
2019-04-10T20:01:17.481Z,8.60
2019-04-10T20:06:20.989Z,8.50
2019-04-10T20:11:31.896Z,8.40
2019-04-10T20:16:24.926Z,8.40
2019-04-10T20:21:26.179Z,8.30
2019-04-10T20:26:27.329Z,8.30
2019-04-10T20:31:33.536Z,8.20
2019-04-10T20:36:35.267Z,8.00
2019-04-10T20:41:46.520Z,7.90
2019-04-10T20:46:39.728Z,7.70
2019-04-10T20:51:41.909Z,7.50
2019-04-10T20:56:43.319Z,7.40
2019-04-10T21:01:44.915Z,7.30
2019-04-10T21:06:46.208Z,7.10
2019-04-10T21:12:00.993Z,7.00
2019-04-10T21:16:50.312Z,6.90
2019-04-10T21:21:51.619Z,6.70
2019-04-10T21:26:52.812Z,6.60
2019-04-10T21:32:05.925Z,6.50
2019-04-10T21:37:08.033Z,6.20
2019-04-10T21:42:16.781Z,6.20
2019-04-10T21:47:13.098Z,6.00
2019-04-10T21:52:14.417Z,5.90
2019-04-10T21:57:16.084Z,5.80
2019-04-10T22:02:17.602Z,6.60
2019-04-10T22:07:29.746Z,6.70
2019-04-10T22:12:34.610Z,5.90
2019-04-10T22:17:34.215Z,6.00
2019-04-10T22:22:35.460Z,6.20
2019-04-10T22:27:36.558Z,6.50
2019-04-10T22:32:38.771Z,6.70
2019-04-10T22:37:40.077Z,7.00
2019-04-10T22:42:46.070Z,7.00
2019-04-10T22:47:44.176Z,7.00
2019-04-10T22:52:45.415Z,7.00
2019-04-10T22:57:46.585Z,6.80
2019-04-10T23:02:48.543Z,6.60
2019-04-10T23:07:49.756Z,6.20
2019-04-10T23:12:59.044Z,6.00
2019-04-10T23:17:54.154Z,5.70
2019-04-10T23:22:55.361Z,5.60
2019-04-10T23:27:56.499Z,5.90
2019-04-10T23:32:57.677Z,5.70
2019-04-10T23:37:59.480Z,5.50
2019-04-10T23:43:09.520Z,5.40
2019-04-10T23:48:04.575Z,5.40
2019-04-10T23:53:06.559Z,5.40
2019-04-10T23:58:07.789Z,5.50
